sensor_id;sensor_type;location;lat;lon;timestamp;P1;durP1;ratioP1;P2;durP2;ratioP2
73938;SDS011;62291;47.554;8.504;2022-08-19T00:02:23;21.38;;;17.25;;
73938;SDS011;62291;47.554;8.504;2022-08-19T00:04:49;19.55;;;17.45;;
73938;SDS011;62291;47.554;8.504;2022-08-19T00:07:17;19.42;;;17.33;;
73938;SDS011;62291;47.554;8.504;2022-08-19T00:09:44;21.00;;;18.05;;
73938;SDS011;62291;47.554;8.504;2022-08-19T00:12:10;21.35;;;18.05;;
73938;SDS011;62291;47.554;8.504;2022-08-19T00:14:36;20.50;;;18.35;;
73938;SDS011;62291;47.554;8.504;2022-08-19T00:17:03;19.00;;;16.52;;
73938;SDS011;62291;47.554;8.504;2022-08-19T00:19:29;17.52;;;15.73;;
73938;SDS011;62291;47.554;8.504;2022-08-19T00:21:55;21.08;;;18.38;;
73938;SDS011;62291;47.554;8.504;2022-08-19T00:24:21;20.63;;;18.17;;
73938;SDS011;62291;47.554;8.504;2022-08-19T00:26:47;20.15;;;18.00;;
73938;SDS011;62291;47.554;8.504;2022-08-19T00:29:14;19.05;;;17.02;;
73938;SDS011;62291;47.554;8.504;2022-08-19T00:31:41;19.00;;;17.00;;
73938;SDS011;62291;47.554;8.504;2022-08-19T00:34:08;19.23;;;17.10;;
73938;SDS011;62291;47.554;8.504;2022-08-19T00:36:34;20.02;;;16.80;;
73938;SDS011;62291;47.554;8.504;2022-08-19T00:39:00;23.02;;;17.95;;
73938;SDS011;62291;47.554;8.504;2022-08-19T00:41:26;20.52;;;18.30;;
73938;SDS011;62291;47.554;8.504;2022-08-19T00:44:04;20.60;;;16.88;;
73938;SDS011;62291;47.554;8.504;2022-08-19T00:46:34;20.45;;;16.60;;
73938;SDS011;62291;47.554;8.504;2022-08-19T00:49:02;22.25;;;18.17;;
73938;SDS011;62291;47.554;8.504;2022-08-19T00:51:40;21.63;;;17.25;;
73938;SDS011;62291;47.554;8.504;2022-08-19T00:54:07;19.98;;;17.23;;
73938;SDS011;62291;47.554;8.504;2022-08-19T00:56:34;18.52;;;15.93;;
73938;SDS011;62291;47.554;8.504;2022-08-19T00:59:00;19.42;;;17.40;;
73938;SDS011;62291;47.554;8.504;2022-08-19T01:01:28;22.02;;;18.63;;
73938;SDS011;62291;47.554;8.504;2022-08-19T01:03:54;22.48;;;19.27;;
73938;SDS011;62291;47.554;8.504;2022-08-19T01:06:20;20.63;;;18.42;;
73938;SDS011;62291;47.554;8.504;2022-08-19T01:08:46;24.08;;;20.08;;
73938;SDS011;62291;47.554;8.504;2022-08-19T01:11:12;26.95;;;20.95;;
73938;SDS011;62291;47.554;8.504;2022-08-19T01:13:38;21.35;;;18.52;;
73938;SDS011;62291;47.554;8.504;2022-08-19T01:16:05;26.25;;;20.45;;
73938;SDS011;62291;47.554;8.504;2022-08-19T01:18:38;27.58;;;20.70;;
73938;SDS011;62291;47.554;8.504;2022-08-19T01:21:08;31.85;;;23.65;;
73938;SDS011;62291;47.554;8.504;2022-08-19T01:23:49;27.63;;;22.05;;
73938;SDS011;62291;47.554;8.504;2022-08-19T01:26:17;30.40;;;23.27;;
73938;SDS011;62291;47.554;8.504;2022-08-19T01:28:46;32.15;;;22.67;;
73938;SDS011;62291;47.554;8.504;2022-08-19T01:31:16;30.08;;;22.98;;
73938;SDS011;62291;47.554;8.504;2022-08-19T01:33:45;29.90;;;22.08;;
73938;SDS011;62291;47.554;8.504;2022-08-19T01:36:13;29.30;;;23.23;;
73938;SDS011;62291;47.554;8.504;2022-08-19T01:38:41;28.52;;;21.83;;
73938;SDS011;62291;47.554;8.504;2022-08-19T01:41:08;29.35;;;22.60;;
73938;SDS011;62291;47.554;8.504;2022-08-19T01:43:36;31.85;;;23.80;;
73938;SDS011;62291;47.554;8.504;2022-08-19T01:46:02;29.95;;;23.77;;
73938;SDS011;62291;47.554;8.504;2022-08-19T01:48:32;30.73;;;24.05;;
73938;SDS011;62291;47.554;8.504;2022-08-19T01:53:25;28.00;;;21.85;;
73938;SDS011;62291;47.554;8.504;2022-08-19T01:55:51;24.02;;;20.10;;
73938;SDS011;62291;47.554;8.504;2022-08-19T01:58:19;25.60;;;20.48;;
73938;SDS011;62291;47.554;8.504;2022-08-19T02:00:47;20.88;;;17.73;;
73938;SDS011;62291;47.554;8.504;2022-08-19T02:03:14;23.55;;;20.75;;
73938;SDS011;62291;47.554;8.504;2022-08-19T02:05:41;26.00;;;20.98;;
73938;SDS011;62291;47.554;8.504;2022-08-19T02:08:07;23.83;;;19.90;;
73938;SDS011;62291;47.554;8.504;2022-08-19T02:10:33;22.25;;;19.42;;
73938;SDS011;62291;47.554;8.504;2022-08-19T02:13:02;27.00;;;20.92;;
73938;SDS011;62291;47.554;8.504;2022-08-19T02:15:28;24.08;;;19.70;;
73938;SDS011;62291;47.554;8.504;2022-08-19T02:17:54;24.08;;;20.73;;
73938;SDS011;62291;47.554;8.504;2022-08-19T02:20:20;23.30;;;20.15;;
73938;SDS011;62291;47.554;8.504;2022-08-19T02:22:45;28.00;;;21.27;;
73938;SDS011;62291;47.554;8.504;2022-08-19T02:25:12;26.40;;;20.95;;
73938;SDS011;62291;47.554;8.504;2022-08-19T02:27:39;26.25;;;20.92;;
73938;SDS011;62291;47.554;8.504;2022-08-19T02:30:06;34.83;;;24.63;;
73938;SDS011;62291;47.554;8.504;2022-08-19T02:32:34;36.17;;;24.58;;
73938;SDS011;62291;47.554;8.504;2022-08-19T02:35:00;26.92;;;22.67;;
73938;SDS011;62291;47.554;8.504;2022-08-19T02:37:26;37.47;;;24.55;;
73938;SDS011;62291;47.554;8.504;2022-08-19T02:40:10;31.05;;;22.90;;
73938;SDS011;62291;47.554;8.504;2022-08-19T02:42:36;26.67;;;21.85;;
73938;SDS011;62291;47.554;8.504;2022-08-19T02:45:02;32.38;;;23.30;;
73938;SDS011;62291;47.554;8.504;2022-08-19T02:47:29;32.17;;;23.50;;
73938;SDS011;62291;47.554;8.504;2022-08-19T02:49:55;36.55;;;26.23;;
73938;SDS011;62291;47.554;8.504;2022-08-19T02:52:21;32.92;;;23.35;;
73938;SDS011;62291;47.554;8.504;2022-08-19T02:54:48;30.50;;;22.83;;
73938;SDS011;62291;47.554;8.504;2022-08-19T02:57:14;33.72;;;24.90;;
73938;SDS011;62291;47.554;8.504;2022-08-19T02:59:40;39.05;;;26.42;;
73938;SDS011;62291;47.554;8.504;2022-08-19T03:02:05;37.45;;;25.73;;
73938;SDS011;62291;47.554;8.504;2022-08-19T03:04:31;44.72;;;26.58;;
73938;SDS011;62291;47.554;8.504;2022-08-19T03:06:57;50.60;;;29.25;;
73938;SDS011;62291;47.554;8.504;2022-08-19T03:09:22;55.38;;;29.95;;
73938;SDS011;62291;47.554;8.504;2022-08-19T03:11:48;90.53;;;36.72;;
73938;SDS011;62291;47.554;8.504;2022-08-19T03:14:13;50.88;;;30.27;;
73938;SDS011;62291;47.554;8.504;2022-08-19T03:16:43;47.03;;;29.50;;
73938;SDS011;62291;47.554;8.504;2022-08-19T03:19:12;45.90;;;28.83;;
73938;SDS011;62291;47.554;8.504;2022-08-19T03:21:39;41.85;;;28.27;;
73938;SDS011;62291;47.554;8.504;2022-08-19T03:24:06;42.47;;;27.75;;
73938;SDS011;62291;47.554;8.504;2022-08-19T03:26:33;39.20;;;27.38;;
73938;SDS011;62291;47.554;8.504;2022-08-19T03:29:03;59.45;;;31.95;;
73938;SDS011;62291;47.554;8.504;2022-08-19T03:31:30;58.08;;;33.60;;
73938;SDS011;62291;47.554;8.504;2022-08-19T03:33:56;51.45;;;30.77;;
73938;SDS011;62291;47.554;8.504;2022-08-19T03:36:24;61.05;;;33.03;;
73938;SDS011;62291;47.554;8.504;2022-08-19T03:38:52;43.05;;;28.50;;
73938;SDS011;62291;47.554;8.504;2022-08-19T03:41:23;46.67;;;31.67;;
73938;SDS011;62291;47.554;8.504;2022-08-19T03:46:19;43.33;;;28.95;;
73938;SDS011;62291;47.554;8.504;2022-08-19T03:48:50;55.03;;;31.77;;
73938;SDS011;62291;47.554;8.504;2022-08-19T03:51:22;46.55;;;29.92;;
73938;SDS011;62291;47.554;8.504;2022-08-19T03:53:50;42.38;;;29.17;;
73938;SDS011;62291;47.554;8.504;2022-08-19T03:56:16;46.22;;;29.92;;
73938;SDS011;62291;47.554;8.504;2022-08-19T03:58:43;47.83;;;30.98;;
73938;SDS011;62291;47.554;8.504;2022-08-19T04:01:11;48.70;;;31.58;;
73938;SDS011;62291;47.554;8.504;2022-08-19T04:03:39;50.55;;;31.05;;
73938;SDS011;62291;47.554;8.504;2022-08-19T04:06:15;71.57;;;35.58;;
73938;SDS011;62291;47.554;8.504;2022-08-19T04:08:43;64.35;;;35.55;;
73938;SDS011;62291;47.554;8.504;2022-08-19T04:11:12;83.22;;;36.70;;
73938;SDS011;62291;47.554;8.504;2022-08-19T04:13:40;57.05;;;32.58;;
73938;SDS011;62291;47.554;8.504;2022-08-19T04:16:07;52.92;;;31.45;;
73938;SDS011;62291;47.554;8.504;2022-08-19T04:18:35;57.05;;;32.40;;
73938;SDS011;62291;47.554;8.504;2022-08-19T04:21:01;35.83;;;26.75;;
73938;SDS011;62291;47.554;8.504;2022-08-19T04:23:28;44.78;;;30.13;;
73938;SDS011;62291;47.554;8.504;2022-08-19T04:25:54;39.55;;;27.10;;
73938;SDS011;62291;47.554;8.504;2022-08-19T04:28:20;39.97;;;29.27;;
73938;SDS011;62291;47.554;8.504;2022-08-19T04:30:48;39.40;;;27.67;;
73938;SDS011;62291;47.554;8.504;2022-08-19T04:33:15;32.42;;;25.70;;
73938;SDS011;62291;47.554;8.504;2022-08-19T04:35:44;35.70;;;25.05;;
73938;SDS011;62291;47.554;8.504;2022-08-19T04:38:12;37.28;;;27.67;;
73938;SDS011;62291;47.554;8.504;2022-08-19T04:40:42;32.13;;;24.55;;
73938;SDS011;62291;47.554;8.504;2022-08-19T04:43:28;35.05;;;26.67;;
73938;SDS011;62291;47.554;8.504;2022-08-19T04:45:54;33.03;;;25.50;;
73938;SDS011;62291;47.554;8.504;2022-08-19T04:48:21;32.28;;;25.35;;
73938;SDS011;62291;47.554;8.504;2022-08-19T04:50:51;31.90;;;23.05;;
73938;SDS011;62291;47.554;8.504;2022-08-19T04:55:53;35.25;;;25.88;;
73938;SDS011;62291;47.554;8.504;2022-08-19T04:58:21;34.42;;;25.70;;
73938;SDS011;62291;47.554;8.504;2022-08-19T05:00:47;32.03;;;24.92;;
73938;SDS011;62291;47.554;8.504;2022-08-19T05:03:13;38.88;;;28.65;;
73938;SDS011;62291;47.554;8.504;2022-08-19T05:05:42;35.35;;;25.92;;
73938;SDS011;62291;47.554;8.504;2022-08-19T05:08:09;38.97;;;28.10;;
73938;SDS011;62291;47.554;8.504;2022-08-19T05:10:36;35.60;;;26.42;;
73938;SDS011;62291;47.554;8.504;2022-08-19T05:13:03;28.90;;;23.23;;
73938;SDS011;62291;47.554;8.504;2022-08-19T05:15:29;34.53;;;25.65;;
73938;SDS011;62291;47.554;8.504;2022-08-19T05:17:55;31.05;;;24.02;;
73938;SDS011;62291;47.554;8.504;2022-08-19T05:20:39;35.28;;;26.15;;
73938;SDS011;62291;47.554;8.504;2022-08-19T05:23:24;32.22;;;23.55;;
73938;SDS011;62291;47.554;8.504;2022-08-19T05:25:50;35.20;;;24.13;;
73938;SDS011;62291;47.554;8.504;2022-08-19T05:28:16;28.55;;;22.95;;
73938;SDS011;62291;47.554;8.504;2022-08-19T05:30:43;24.95;;;21.17;;
73938;SDS011;62291;47.554;8.504;2022-08-19T05:33:10;21.25;;;18.35;;
73938;SDS011;62291;47.554;8.504;2022-08-19T05:35:37;22.00;;;19.25;;
73938;SDS011;62291;47.554;8.504;2022-08-19T05:38:04;21.85;;;18.95;;
73938;SDS011;62291;47.554;8.504;2022-08-19T05:40:33;26.67;;;21.05;;
73938;SDS011;62291;47.554;8.504;2022-08-19T05:43:01;29.92;;;22.58;;
73938;SDS011;62291;47.554;8.504;2022-08-19T05:45:28;27.30;;;22.15;;
73938;SDS011;62291;47.554;8.504;2022-08-19T05:47:54;32.55;;;23.85;;
73938;SDS011;62291;47.554;8.504;2022-08-19T05:50:20;30.67;;;22.98;;
73938;SDS011;62291;47.554;8.504;2022-08-19T05:52:46;26.67;;;21.80;;
73938;SDS011;62291;47.554;8.504;2022-08-19T05:55:11;30.27;;;22.38;;
73938;SDS011;62291;47.554;8.504;2022-08-19T05:57:37;25.67;;;20.42;;
73938;SDS011;62291;47.554;8.504;2022-08-19T06:00:06;23.05;;;18.83;;
73938;SDS011;62291;47.554;8.504;2022-08-19T06:02:36;20.88;;;17.33;;
73938;SDS011;62291;47.554;8.504;2022-08-19T06:05:02;17.42;;;15.27;;
73938;SDS011;62291;47.554;8.504;2022-08-19T06:07:31;21.48;;;18.33;;
73938;SDS011;62291;47.554;8.504;2022-08-19T06:09:57;19.23;;;17.23;;
73938;SDS011;62291;47.554;8.504;2022-08-19T06:12:23;21.75;;;19.25;;
73938;SDS011;62291;47.554;8.504;2022-08-19T06:14:53;21.30;;;18.83;;
73938;SDS011;62291;47.554;8.504;2022-08-19T06:17:20;22.08;;;18.88;;
73938;SDS011;62291;47.554;8.504;2022-08-19T06:19:47;22.83;;;18.70;;
73938;SDS011;62291;47.554;8.504;2022-08-19T06:22:14;23.65;;;19.40;;
73938;SDS011;62291;47.554;8.504;2022-08-19T06:24:41;20.95;;;18.70;;
73938;SDS011;62291;47.554;8.504;2022-08-19T06:27:07;21.67;;;18.38;;
73938;SDS011;62291;47.554;8.504;2022-08-19T06:29:32;21.15;;;17.83;;
73938;SDS011;62291;47.554;8.504;2022-08-19T06:31:59;22.80;;;19.27;;
73938;SDS011;62291;47.554;8.504;2022-08-19T06:34:28;23.58;;;19.10;;
73938;SDS011;62291;47.554;8.504;2022-08-19T06:36:56;24.15;;;19.30;;
73938;SDS011;62291;47.554;8.504;2022-08-19T06:39:27;20.83;;;17.75;;
73938;SDS011;62291;47.554;8.504;2022-08-19T06:41:59;23.17;;;18.73;;
73938;SDS011;62291;47.554;8.504;2022-08-19T06:44:27;20.90;;;18.58;;
73938;SDS011;62291;47.554;8.504;2022-08-19T06:46:57;23.98;;;18.98;;
73938;SDS011;62291;47.554;8.504;2022-08-19T06:49:23;20.13;;;18.02;;
73938;SDS011;62291;47.554;8.504;2022-08-19T06:51:56;21.23;;;18.25;;
73938;SDS011;62291;47.554;8.504;2022-08-19T06:54:23;20.80;;;18.35;;
73938;SDS011;62291;47.554;8.504;2022-08-19T06:56:50;18.63;;;16.23;;
73938;SDS011;62291;47.554;8.504;2022-08-19T06:59:17;18.70;;;16.35;;
73938;SDS011;62291;47.554;8.504;2022-08-19T07:01:49;18.95;;;16.83;;
73938;SDS011;62291;47.554;8.504;2022-08-19T07:04:20;21.83;;;18.33;;
73938;SDS011;62291;47.554;8.504;2022-08-19T07:09:15;20.83;;;17.50;;
73938;SDS011;62291;47.554;8.504;2022-08-19T07:11:46;18.60;;;16.70;;
73938;SDS011;62291;47.554;8.504;2022-08-19T07:16:43;19.73;;;16.75;;
73938;SDS011;62291;47.554;8.504;2022-08-19T07:19:10;17.38;;;15.63;;
73938;SDS011;62291;47.554;8.504;2022-08-19T07:21:37;17.67;;;15.77;;
73938;SDS011;62291;47.554;8.504;2022-08-19T07:24:03;18.52;;;16.40;;
73938;SDS011;62291;47.554;8.504;2022-08-19T07:26:30;19.50;;;17.02;;
73938;SDS011;62291;47.554;8.504;2022-08-19T07:28:57;17.13;;;15.43;;
73938;SDS011;62291;47.554;8.504;2022-08-19T07:31:25;17.33;;;15.60;;
73938;SDS011;62291;47.554;8.504;2022-08-19T07:33:53;19.45;;;16.15;;
73938;SDS011;62291;47.554;8.504;2022-08-19T07:36:26;17.85;;;15.88;;
73938;SDS011;62291;47.554;8.504;2022-08-19T07:38:56;16.80;;;14.98;;
73938;SDS011;62291;47.554;8.504;2022-08-19T07:41:22;17.35;;;15.45;;
73938;SDS011;62291;47.554;8.504;2022-08-19T07:43:49;19.05;;;16.55;;
73938;SDS011;62291;47.554;8.504;2022-08-19T07:46:15;17.25;;;15.55;;
73938;SDS011;62291;47.554;8.504;2022-08-19T07:48:42;18.48;;;16.25;;
73938;SDS011;62291;47.554;8.504;2022-08-19T07:51:12;17.45;;;15.65;;
73938;SDS011;62291;47.554;8.504;2022-08-19T07:53:39;16.88;;;15.10;;
73938;SDS011;62291;47.554;8.504;2022-08-19T07:56:07;16.48;;;14.85;;
73938;SDS011;62291;47.554;8.504;2022-08-19T07:58:35;20.17;;;16.33;;
73938;SDS011;62291;47.554;8.504;2022-08-19T08:01:03;17.25;;;15.45;;
73938;SDS011;62291;47.554;8.504;2022-08-19T08:03:31;17.83;;;16.05;;
73938;SDS011;62291;47.554;8.504;2022-08-19T08:06:15;17.92;;;16.05;;
73938;SDS011;62291;47.554;8.504;2022-08-19T08:09:00;20.05;;;16.92;;
73938;SDS011;62291;47.554;8.504;2022-08-19T08:11:37;15.95;;;14.43;;
73938;SDS011;62291;47.554;8.504;2022-08-19T08:14:04;16.52;;;14.90;;
73938;SDS011;62291;47.554;8.504;2022-08-19T08:16:34;16.48;;;14.85;;
73938;SDS011;62291;47.554;8.504;2022-08-19T08:19:03;17.55;;;15.20;;
73938;SDS011;62291;47.554;8.504;2022-08-19T08:21:30;18.17;;;16.27;;
73938;SDS011;62291;47.554;8.504;2022-08-19T08:23:57;19.23;;;17.23;;
73938;SDS011;62291;47.554;8.504;2022-08-19T08:26:23;22.35;;;17.52;;
73938;SDS011;62291;47.554;8.504;2022-08-19T08:28:50;23.35;;;19.23;;
73938;SDS011;62291;47.554;8.504;2022-08-19T08:31:17;20.60;;;18.02;;
73938;SDS011;62291;47.554;8.504;2022-08-19T08:33:44;21.42;;;17.65;;
73938;SDS011;62291;47.554;8.504;2022-08-19T08:36:10;20.17;;;17.52;;
73938;SDS011;62291;47.554;8.504;2022-08-19T08:38:38;18.80;;;16.80;;
73938;SDS011;62291;47.554;8.504;2022-08-19T08:43:58;19.50;;;17.13;;
73938;SDS011;62291;47.554;8.504;2022-08-19T08:46:26;17.35;;;15.55;;
73938;SDS011;62291;47.554;8.504;2022-08-19T08:51:40;18.02;;;16.23;;
73938;SDS011;62291;47.554;8.504;2022-08-19T08:54:23;18.85;;;16.85;;
73938;SDS011;62291;47.554;8.504;2022-08-19T08:56:51;19.00;;;17.00;;
73938;SDS011;62291;47.554;8.504;2022-08-19T08:59:21;19.20;;;17.30;;
73938;SDS011;62291;47.554;8.504;2022-08-19T09:01:55;19.05;;;16.67;;
73938;SDS011;62291;47.554;8.504;2022-08-19T09:04:21;19.50;;;17.40;;
73938;SDS011;62291;47.554;8.504;2022-08-19T09:09:49;24.40;;;20.45;;
73938;SDS011;62291;47.554;8.504;2022-08-19T09:14:49;22.30;;;20.00;;
73938;SDS011;62291;47.554;8.504;2022-08-19T09:17:25;24.80;;;20.80;;
73938;SDS011;62291;47.554;8.504;2022-08-19T09:19:59;22.25;;;19.58;;
73938;SDS011;62291;47.554;8.504;2022-08-19T09:22:29;24.15;;;21.58;;
73938;SDS011;62291;47.554;8.504;2022-08-19T09:24:55;25.10;;;21.92;;
73938;SDS011;62291;47.554;8.504;2022-08-19T09:27:21;26.08;;;23.23;;
73938;SDS011;62291;47.554;8.504;2022-08-19T09:29:49;25.25;;;22.55;;
73938;SDS011;62291;47.554;8.504;2022-08-19T09:32:15;27.95;;;24.42;;
73938;SDS011;62291;47.554;8.504;2022-08-19T09:34:43;27.70;;;23.90;;
73938;SDS011;62291;47.554;8.504;2022-08-19T09:37:09;30.42;;;25.05;;
73938;SDS011;62291;47.554;8.504;2022-08-19T09:39:35;30.48;;;25.55;;
73938;SDS011;62291;47.554;8.504;2022-08-19T09:42:00;30.52;;;24.60;;
73938;SDS011;62291;47.554;8.504;2022-08-19T09:44:28;34.25;;;25.65;;
73938;SDS011;62291;47.554;8.504;2022-08-19T09:46:54;28.42;;;25.08;;
73938;SDS011;62291;47.554;8.504;2022-08-19T09:49:20;34.58;;;27.50;;
73938;SDS011;62291;47.554;8.504;2022-08-19T09:51:49;30.65;;;27.35;;
73938;SDS011;62291;47.554;8.504;2022-08-19T09:54:16;31.65;;;26.60;;
73938;SDS011;62291;47.554;8.504;2022-08-19T09:56:42;33.83;;;28.60;;
73938;SDS011;62291;47.554;8.504;2022-08-19T09:59:09;34.70;;;28.67;;
73938;SDS011;62291;47.554;8.504;2022-08-19T10:01:36;35.50;;;28.85;;
73938;SDS011;62291;47.554;8.504;2022-08-19T10:04:02;33.60;;;28.15;;
73938;SDS011;62291;47.554;8.504;2022-08-19T10:06:33;37.15;;;29.80;;
73938;SDS011;62291;47.554;8.504;2022-08-19T10:09:01;37.13;;;30.58;;
73938;SDS011;62291;47.554;8.504;2022-08-19T10:11:31;35.90;;;30.25;;
73938;SDS011;62291;47.554;8.504;2022-08-19T10:13:58;38.13;;;30.40;;
73938;SDS011;62291;47.554;8.504;2022-08-19T10:16:24;37.60;;;29.75;;
73938;SDS011;62291;47.554;8.504;2022-08-19T10:18:51;44.92;;;33.00;;
73938;SDS011;62291;47.554;8.504;2022-08-19T10:21:22;39.42;;;31.88;;
73938;SDS011;62291;47.554;8.504;2022-08-19T10:23:50;40.53;;;30.85;;
73938;SDS011;62291;47.554;8.504;2022-08-19T10:26:18;34.15;;;28.38;;
73938;SDS011;62291;47.554;8.504;2022-08-19T10:28:46;36.00;;;30.60;;
73938;SDS011;62291;47.554;8.504;2022-08-19T10:31:22;37.22;;;30.77;;
73938;SDS011;62291;47.554;8.504;2022-08-19T10:33:50;37.75;;;31.00;;
73938;SDS011;62291;47.554;8.504;2022-08-19T10:36:24;34.70;;;29.08;;
73938;SDS011;62291;47.554;8.504;2022-08-19T10:38:53;36.15;;;29.75;;
73938;SDS011;62291;47.554;8.504;2022-08-19T10:41:23;38.67;;;32.17;;
73938;SDS011;62291;47.554;8.504;2022-08-19T10:44:10;34.55;;;30.02;;
73938;SDS011;62291;47.554;8.504;2022-08-19T10:46:42;36.97;;;31.00;;
73938;SDS011;62291;47.554;8.504;2022-08-19T10:49:12;37.08;;;31.80;;
73938;SDS011;62291;47.554;8.504;2022-08-19T10:51:39;36.33;;;30.38;;
73938;SDS011;62291;47.554;8.504;2022-08-19T10:54:23;36.17;;;31.13;;
73938;SDS011;62291;47.554;8.504;2022-08-19T10:57:09;35.28;;;29.70;;
73938;SDS011;62291;47.554;8.504;2022-08-19T10:59:35;35.28;;;29.52;;
73938;SDS011;62291;47.554;8.504;2022-08-19T11:02:03;34.72;;;30.25;;
73938;SDS011;62291;47.554;8.504;2022-08-19T11:04:30;36.05;;;30.58;;
73938;SDS011;62291;47.554;8.504;2022-08-19T11:06:57;36.15;;;30.40;;
73938;SDS011;62291;47.554;8.504;2022-08-19T11:09:24;37.67;;;31.33;;
73938;SDS011;62291;47.554;8.504;2022-08-19T11:11:51;35.63;;;29.75;;
73938;SDS011;62291;47.554;8.504;2022-08-19T11:14:18;36.05;;;29.77;;
73938;SDS011;62291;47.554;8.504;2022-08-19T11:16:45;40.25;;;32.50;;
73938;SDS011;62291;47.554;8.504;2022-08-19T11:19:15;32.53;;;28.75;;
73938;SDS011;62291;47.554;8.504;2022-08-19T11:21:46;36.20;;;29.17;;
73938;SDS011;62291;47.554;8.504;2022-08-19T11:24:17;31.23;;;27.83;;
73938;SDS011;62291;47.554;8.504;2022-08-19T11:26:45;31.73;;;28.30;;
73938;SDS011;62291;47.554;8.504;2022-08-19T11:29:12;29.88;;;26.35;;
73938;SDS011;62291;47.554;8.504;2022-08-19T11:31:39;30.88;;;27.50;;
73938;SDS011;62291;47.554;8.504;2022-08-19T11:34:08;30.00;;;26.80;;
73938;SDS011;62291;47.554;8.504;2022-08-19T11:36:38;37.47;;;31.48;;
73938;SDS011;62291;47.554;8.504;2022-08-19T11:39:07;30.90;;;26.73;;
73938;SDS011;62291;47.554;8.504;2022-08-19T11:41:34;32.95;;;29.48;;
73938;SDS011;62291;47.554;8.504;2022-08-19T11:44:00;34.05;;;29.52;;
73938;SDS011;62291;47.554;8.504;2022-08-19T11:46:28;34.33;;;29.95;;
73938;SDS011;62291;47.554;8.504;2022-08-19T11:48:54;34.42;;;28.25;;
73938;SDS011;62291;47.554;8.504;2022-08-19T11:51:22;31.98;;;28.52;;
73938;SDS011;62291;47.554;8.504;2022-08-19T11:53:52;36.72;;;30.35;;
73938;SDS011;62291;47.554;8.504;2022-08-19T11:56:19;33.30;;;29.70;;
73938;SDS011;62291;47.554;8.504;2022-08-19T11:58:46;34.65;;;30.20;;
73938;SDS011;62291;47.554;8.504;2022-08-19T12:01:13;31.67;;;28.27;;
73938;SDS011;62291;47.554;8.504;2022-08-19T12:03:41;30.83;;;27.55;;
73938;SDS011;62291;47.554;8.504;2022-08-19T12:06:08;33.47;;;29.88;;
73938;SDS011;62291;47.554;8.504;2022-08-19T12:08:37;37.30;;;30.10;;
73938;SDS011;62291;47.554;8.504;2022-08-19T12:11:03;34.95;;;30.13;;
73938;SDS011;62291;47.554;8.504;2022-08-19T12:13:32;33.10;;;29.23;;
73938;SDS011;62291;47.554;8.504;2022-08-19T12:15:59;34.40;;;29.65;;
73938;SDS011;62291;47.554;8.504;2022-08-19T12:18:25;35.53;;;31.50;;
73938;SDS011;62291;47.554;8.504;2022-08-19T12:20:52;34.25;;;30.50;;
73938;SDS011;62291;47.554;8.504;2022-08-19T12:23:19;34.33;;;30.42;;
73938;SDS011;62291;47.554;8.504;2022-08-19T12:25:46;35.58;;;31.48;;
73938;SDS011;62291;47.554;8.504;2022-08-19T12:28:17;36.72;;;32.22;;
73938;SDS011;62291;47.554;8.504;2022-08-19T12:30:48;37.55;;;33.17;;
73938;SDS011;62291;47.554;8.504;2022-08-19T12:33:16;33.03;;;29.60;;
73938;SDS011;62291;47.554;8.504;2022-08-19T12:35:43;32.22;;;28.73;;
73938;SDS011;62291;47.554;8.504;2022-08-19T12:38:11;33.05;;;29.55;;
73938;SDS011;62291;47.554;8.504;2022-08-19T12:40:38;34.63;;;30.90;;
73938;SDS011;62291;47.554;8.504;2022-08-19T12:43:05;35.28;;;30.92;;
73938;SDS011;62291;47.554;8.504;2022-08-19T12:45:31;34.38;;;30.73;;
73938;SDS011;62291;47.554;8.504;2022-08-19T12:47:57;35.08;;;31.13;;
73938;SDS011;62291;47.554;8.504;2022-08-19T12:50:23;35.22;;;30.67;;
73938;SDS011;62291;47.554;8.504;2022-08-19T12:52:49;33.45;;;29.90;;
73938;SDS011;62291;47.554;8.504;2022-08-19T12:55:14;35.55;;;31.00;;
73938;SDS011;62291;47.554;8.504;2022-08-19T12:57:40;32.65;;;29.15;;
73938;SDS011;62291;47.554;8.504;2022-08-19T13:02:35;34.22;;;29.33;;
73938;SDS011;62291;47.554;8.504;2022-08-19T13:05:03;33.58;;;29.92;;
73938;SDS011;62291;47.554;8.504;2022-08-19T13:07:29;35.90;;;31.92;;
73938;SDS011;62291;47.554;8.504;2022-08-19T13:09:56;35.92;;;31.17;;
73938;SDS011;62291;47.554;8.504;2022-08-19T13:12:22;32.42;;;29.23;;
73938;SDS011;62291;47.554;8.504;2022-08-19T13:14:51;34.50;;;30.50;;
73938;SDS011;62291;47.554;8.504;2022-08-19T13:17:20;36.00;;;32.08;;
73938;SDS011;62291;47.554;8.504;2022-08-19T13:19:46;34.75;;;31.05;;
73938;SDS011;62291;47.554;8.504;2022-08-19T13:22:12;32.28;;;28.77;;
73938;SDS011;62291;47.554;8.504;2022-08-19T13:24:37;41.67;;;32.65;;
73938;SDS011;62291;47.554;8.504;2022-08-19T13:27:03;40.30;;;34.58;;
73938;SDS011;62291;47.554;8.504;2022-08-19T13:29:29;37.92;;;33.28;;
73938;SDS011;62291;47.554;8.504;2022-08-19T13:32:13;39.80;;;33.50;;
73938;SDS011;62291;47.554;8.504;2022-08-19T13:34:58;38.08;;;33.90;;
73938;SDS011;62291;47.554;8.504;2022-08-19T13:37:23;38.33;;;34.05;;
73938;SDS011;62291;47.554;8.504;2022-08-19T13:40:11;36.88;;;32.97;;
73938;SDS011;62291;47.554;8.504;2022-08-19T13:42:47;37.03;;;32.33;;
73938;SDS011;62291;47.554;8.504;2022-08-19T13:45:16;35.42;;;31.73;;
73938;SDS011;62291;47.554;8.504;2022-08-19T13:47:54;34.72;;;31.02;;
73938;SDS011;62291;47.554;8.504;2022-08-19T13:50:22;35.22;;;31.63;;
73938;SDS011;62291;47.554;8.504;2022-08-19T13:52:50;37.78;;;32.00;;
73938;SDS011;62291;47.554;8.504;2022-08-19T13:55:16;36.50;;;32.28;;
73938;SDS011;62291;47.554;8.504;2022-08-19T13:57:42;32.42;;;29.02;;
73938;SDS011;62291;47.554;8.504;2022-08-19T14:00:13;33.85;;;30.48;;
73938;SDS011;62291;47.554;8.504;2022-08-19T14:02:42;36.30;;;32.50;;
73938;SDS011;62291;47.554;8.504;2022-08-19T14:05:10;33.40;;;29.83;;
73938;SDS011;62291;47.554;8.504;2022-08-19T14:07:37;33.95;;;30.27;;
73938;SDS011;62291;47.554;8.504;2022-08-19T14:10:04;31.90;;;28.55;;
73938;SDS011;62291;47.554;8.504;2022-08-19T14:12:32;33.05;;;29.65;;
73938;SDS011;62291;47.554;8.504;2022-08-19T14:14:58;33.38;;;29.88;;
73938;SDS011;62291;47.554;8.504;2022-08-19T14:17:24;33.40;;;29.90;;
73938;SDS011;62291;47.554;8.504;2022-08-19T14:19:55;35.85;;;31.40;;
73938;SDS011;62291;47.554;8.504;2022-08-19T14:22:28;33.63;;;30.00;;
73938;SDS011;62291;47.554;8.504;2022-08-19T14:24:56;31.63;;;28.42;;
73938;SDS011;62291;47.554;8.504;2022-08-19T14:27:22;34.28;;;30.67;;
73938;SDS011;62291;47.554;8.504;2022-08-19T14:29:50;32.92;;;29.52;;
73938;SDS011;62291;47.554;8.504;2022-08-19T14:32:18;33.88;;;30.27;;
73938;SDS011;62291;47.554;8.504;2022-08-19T14:34:44;34.05;;;30.17;;
73938;SDS011;62291;47.554;8.504;2022-08-19T14:37:13;33.67;;;30.17;;
73938;SDS011;62291;47.554;8.504;2022-08-19T14:39:42;31.83;;;28.52;;
73938;SDS011;62291;47.554;8.504;2022-08-19T14:42:09;34.83;;;31.02;;
73938;SDS011;62291;47.554;8.504;2022-08-19T14:44:36;34.38;;;30.80;;
73938;SDS011;62291;47.554;8.504;2022-08-19T14:47:02;34.25;;;30.02;;
73938;SDS011;62291;47.554;8.504;2022-08-19T14:49:28;32.67;;;29.00;;
73938;SDS011;62291;47.554;8.504;2022-08-19T14:51:54;32.72;;;29.23;;
73938;SDS011;62291;47.554;8.504;2022-08-19T14:54:20;32.90;;;29.50;;